sensor_id;sensor_type;location;lat;lon;timestamp;pressure;altitude;pressure_sealevel;temperature;humidity
73551;BME280;61816;53.582;10.096;2022-12-29T00:02:15;99807.41;;;7.95;100.00
73551;BME280;61816;53.582;10.096;2022-12-29T00:04:41;99809.09;;;8.12;100.00
73551;BME280;61816;53.582;10.096;2022-12-29T00:07:06;99808.75;;;8.07;100.00
73551;BME280;61816;53.582;10.096;2022-12-29T00:09:32;99818.69;;;8.06;100.00
73551;BME280;61816;53.582;10.096;2022-12-29T00:11:58;99794.25;;;8.08;100.00
73551;BME280;61816;53.582;10.096;2022-12-29T00:14:24;99793.94;;;8.11;100.00
73551;BME280;61816;53.582;10.096;2022-12-29T00:17:08;99783.13;;;8.27;100.00
73551;BME280;61816;53.582;10.096;2022-12-29T00:19:33;99787.88;;;8.17;100.00
73551;BME280;61816;53.582;10.096;2022-12-29T00:22:18;99777.44;;;8.22;100.00
73551;BME280;61816;53.582;10.096;2022-12-29T00:25:03;99769.66;;;8.19;100.00
73551;BME280;61816;53.582;10.096;2022-12-29T00:27:47;99774.06;;;8.28;100.00
73551;BME280;61816;53.582;10.096;2022-12-29T00:30:31;99772.34;;;8.27;100.00
73551;BME280;61816;53.582;10.096;2022-12-29T00:33:17;99764.59;;;8.32;100.00
73551;BME280;61816;53.582;10.096;2022-12-29T00:36:29;99758.53;;;8.38;100.00
73551;BME280;61816;53.582;10.096;2022-12-29T00:39:00;99761.22;;;8.47;100.00
73551;BME280;61816;53.582;10.096;2022-12-29T00:42:07;99750.09;;;8.50;100.00
73551;BME280;61816;53.582;10.096;2022-12-29T00:44:51;99754.28;;;8.52;100.00
73551;BME280;61816;53.582;10.096;2022-12-29T00:47:16;99752.78;;;8.50;100.00
73551;BME280;61816;53.582;10.096;2022-12-29T00:49:42;99759.00;;;8.58;100.00
73551;BME280;61816;53.582;10.096;2022-12-29T00:52:10;99749.34;;;8.72;100.00
73551;BME280;61816;53.582;10.096;2022-12-29T00:54:37;99748.03;;;8.68;100.00
73551;BME280;61816;53.582;10.096;2022-12-29T00:57:03;99759.84;;;8.59;100.00
73551;BME280;61816;53.582;10.096;2022-12-29T00:59:29;99747.53;;;8.64;100.00
73551;BME280;61816;53.582;10.096;2022-12-29T01:01:55;99749.06;;;8.59;100.00
73551;BME280;61816;53.582;10.096;2022-12-29T01:04:22;99748.72;;;8.62;100.00
73551;BME280;61816;53.582;10.096;2022-12-29T01:06:48;99753.44;;;8.68;100.00
73551;BME280;61816;53.582;10.096;2022-12-29T01:09:14;99739.25;;;8.66;100.00
73551;BME280;61816;53.582;10.096;2022-12-29T01:11:58;99734.91;;;8.57;100.00
73551;BME280;61816;53.582;10.096;2022-12-29T01:14:23;99740.63;;;8.62;100.00
73551;BME280;61816;53.582;10.096;2022-12-29T01:16:49;99730.28;;;8.74;100.00
73551;BME280;61816;53.582;10.096;2022-12-29T01:19:16;99729.44;;;8.73;100.00
73551;BME280;61816;53.582;10.096;2022-12-29T01:21:41;99729.09;;;8.76;100.00
73551;BME280;61816;53.582;10.096;2022-12-29T01:24:07;99730.44;;;8.80;100.00
73551;BME280;61816;53.582;10.096;2022-12-29T01:26:32;99732.81;;;8.75;100.00
73551;BME280;61816;53.582;10.096;2022-12-29T01:28:58;99726.41;;;8.76;100.00
73551;BME280;61816;53.582;10.096;2022-12-29T01:31:23;99716.50;;;8.68;100.00
73551;BME280;61816;53.582;10.096;2022-12-29T01:33:48;99715.59;;;8.76;100.00
73551;BME280;61816;53.582;10.096;2022-12-29T01:36:18;99705.19;;;8.65;100.00
73551;BME280;61816;53.582;10.096;2022-12-29T01:38:44;99707.66;;;8.83;100.00
73551;BME280;61816;53.582;10.096;2022-12-29T01:41:11;99706.13;;;8.88;100.00
73551;BME280;61816;53.582;10.096;2022-12-29T01:46:53;99701.97;;;8.69;100.00
73551;BME280;61816;53.582;10.096;2022-12-29T01:49:22;99697.06;;;8.73;100.00
73551;BME280;61816;53.582;10.096;2022-12-29T01:51:54;99702.81;;;8.70;100.00
73551;BME280;61816;53.582;10.096;2022-12-29T01:54:32;99698.47;;;8.61;100.00
73551;BME280;61816;53.582;10.096;2022-12-29T01:57:03;99697.75;;;8.75;100.00
73551;BME280;61816;53.582;10.096;2022-12-29T01:59:33;99706.16;;;8.72;100.00
73551;BME280;61816;53.582;10.096;2022-12-29T02:02:00;99689.69;;;8.59;100.00
73551;BME280;61816;53.582;10.096;2022-12-29T02:04:27;99687.03;;;8.51;100.00
73551;BME280;61816;53.582;10.096;2022-12-29T02:07:05;99697.75;;;8.67;100.00
73551;BME280;61816;53.582;10.096;2022-12-29T02:09:32;99692.34;;;8.67;100.00
73551;BME280;61816;53.582;10.096;2022-12-29T02:11:59;99686.69;;;8.54;100.00
73551;BME280;61816;53.582;10.096;2022-12-29T02:14:24;99698.16;;;8.56;100.00
73551;BME280;61816;53.582;10.096;2022-12-29T02:17:18;99683.31;;;8.52;100.00
73551;BME280;61816;53.582;10.096;2022-12-29T02:23:14;99674.44;;;8.43;100.00
73551;BME280;61816;53.582;10.096;2022-12-29T02:28:53;99664.47;;;8.43;100.00
73551;BME280;61816;53.582;10.096;2022-12-29T02:31:29;99662.13;;;8.40;100.00
73551;BME280;61816;53.582;10.096;2022-12-29T02:36:43;99654.84;;;8.41;100.00
73551;BME280;61816;53.582;10.096;2022-12-29T02:39:20;99649.13;;;8.44;100.00
73551;BME280;61816;53.582;10.096;2022-12-29T02:45:02;99640.16;;;8.52;100.00
73551;BME280;61816;53.582;10.096;2022-12-29T02:47:36;99636.09;;;8.56;100.00
73551;BME280;61816;53.582;10.096;2022-12-29T02:50:22;99624.94;;;8.59;100.00
73551;BME280;61816;53.582;10.096;2022-12-29T02:52:54;99639.13;;;8.61;100.00
73551;BME280;61816;53.582;10.096;2022-12-29T02:55:22;99633.72;;;8.61;100.00
73551;BME280;61816;53.582;10.096;2022-12-29T02:57:47;99629.81;;;8.63;100.00
73551;BME280;61816;53.582;10.096;2022-12-29T03:00:17;99617.19;;;8.64;100.00
73551;BME280;61816;53.582;10.096;2022-12-29T03:03:11;99624.19;;;8.81;100.00
73551;BME280;61816;53.582;10.096;2022-12-29T03:08:48;99618.66;;;8.75;100.00
73551;BME280;61816;53.582;10.096;2022-12-29T03:11:15;99614.09;;;8.75;100.00
73551;BME280;61816;53.582;10.096;2022-12-29T03:14:06;99625.47;;;8.85;100.00
73551;BME280;61816;53.582;10.096;2022-12-29T03:16:59;99620.84;;;9.02;100.00
73551;BME280;61816;53.582;10.096;2022-12-29T03:19:28;99601.16;;;8.93;100.00
73551;BME280;61816;53.582;10.096;2022-12-29T03:22:01;99599.19;;;8.87;100.00
73551;BME280;61816;53.582;10.096;2022-12-29T03:24:50;99586.97;;;8.91;100.00
73551;BME280;61816;53.582;10.096;2022-12-29T03:27:26;99584.97;;;8.93;100.00
73551;BME280;61816;53.582;10.096;2022-12-29T03:29:58;99580.88;;;8.97;100.00
73551;BME280;61816;53.582;10.096;2022-12-29T03:32:33;99581.59;;;8.91;100.00
73551;BME280;61816;53.582;10.096;2022-12-29T03:35:00;99568.91;;;9.00;100.00
73551;BME280;61816;53.582;10.096;2022-12-29T03:37:38;99567.19;;;8.99;100.00
73551;BME280;61816;53.582;10.096;2022-12-29T03:40:06;99569.00;;;9.07;100.00
73551;BME280;61816;53.582;10.096;2022-12-29T03:42:34;99577.34;;;8.97;100.00
73551;BME280;61816;53.582;10.096;2022-12-29T03:45:00;99569.47;;;9.10;100.00
73551;BME280;61816;53.582;10.096;2022-12-29T03:47:25;99577.16;;;8.98;100.00
73551;BME280;61816;53.582;10.096;2022-12-29T03:49:51;99584.22;;;9.00;100.00
73551;BME280;61816;53.582;10.096;2022-12-29T03:52:17;99580.88;;;8.97;100.00
73551;BME280;61816;53.582;10.096;2022-12-29T03:54:43;99572.34;;;9.09;100.00
73551;BME280;61816;53.582;10.096;2022-12-29T03:57:10;99569.00;;;9.07;100.00
73551;BME280;61816;53.582;10.096;2022-12-29T03:59:35;99567.31;;;9.06;100.00
73551;BME280;61816;53.582;10.096;2022-12-29T04:02:01;99572.34;;;9.09;100.00
73551;BME280;61816;53.582;10.096;2022-12-29T04:04:26;99576.44;;;9.05;100.00
73551;BME280;61816;53.582;10.096;2022-12-29T04:06:51;99557.97;;;8.93;100.00
73551;BME280;61816;53.582;10.096;2022-12-29T04:09:17;99551.81;;;9.00;100.00
73551;BME280;61816;53.582;10.096;2022-12-29T04:11:42;99541.78;;;8.93;100.00
73551;BME280;61816;53.582;10.096;2022-12-29T04:14:08;99550.84;;;9.01;100.00
73551;BME280;61816;53.582;10.096;2022-12-29T04:16:33;99547.81;;;8.95;100.00
73551;BME280;61816;53.582;10.096;2022-12-29T04:19:01;99545.44;;;9.01;100.00
73551;BME280;61816;53.582;10.096;2022-12-29T04:21:27;99543.69;;;9.08;100.00
73551;BME280;61816;53.582;10.096;2022-12-29T04:23:52;99541.53;;;9.03;100.00
73551;BME280;61816;53.582;10.096;2022-12-29T04:26:17;99550.66;;;9.02;100.00
73551;BME280;61816;53.582;10.096;2022-12-29T04:28:43;99541.91;;;9.00;100.00
73551;BME280;61816;53.582;10.096;2022-12-29T04:31:09;99544.75;;;8.98;100.00
73551;BME280;61816;53.582;10.096;2022-12-29T04:33:34;99549.44;;;9.05;100.00
73551;BME280;61816;53.582;10.096;2022-12-29T04:35:59;99536.97;;;9.04;100.00
73551;BME280;61816;53.582;10.096;2022-12-29T04:38:25;99520.53;;;8.90;100.00
73551;BME280;61816;53.582;10.096;2022-12-29T04:40:51;99512.81;;;8.87;100.00
73551;BME280;61816;53.582;10.096;2022-12-29T04:43:16;99524.72;;;8.93;100.00
73551;BME280;61816;53.582;10.096;2022-12-29T04:45:44;99521.25;;;8.84;100.00
73551;BME280;61816;53.582;10.096;2022-12-29T04:48:10;99517.53;;;8.85;100.00
73551;BME280;61816;53.582;10.096;2022-12-29T04:50:36;99512.75;;;8.95;100.00
73551;BME280;61816;53.582;10.096;2022-12-29T04:53:01;99516.47;;;8.94;100.00
73551;BME280;61816;53.582;10.096;2022-12-29T04:55:26;99510.69;;;8.97;100.00
73551;BME280;61816;53.582;10.096;2022-12-29T04:57:52;99496.53;;;8.95;100.00
73551;BME280;61816;53.582;10.096;2022-12-29T05:00:17;99506.50;;;8.95;100.00
73551;BME280;61816;53.582;10.096;2022-12-29T05:02:43;99503.25;;;9.00;100.00
73551;BME280;61816;53.582;10.096;2022-12-29T05:05:09;99502.88;;;9.03;100.00
73551;BME280;61816;53.582;10.096;2022-12-29T05:07:34;99500.00;;;9.04;100.00
73551;BME280;61816;53.582;10.096;2022-12-29T05:10:00;99493.19;;;8.93;100.00
73551;BME280;61816;53.582;10.096;2022-12-29T05:12:25;99503.63;;;8.96;100.00
73551;BME280;61816;53.582;10.096;2022-12-29T05:14:50;99494.50;;;8.97;100.00
73551;BME280;61816;53.582;10.096;2022-12-29T05:17:16;99505.47;;;8.96;100.00
73551;BME280;61816;53.582;10.096;2022-12-29T05:19:41;99503.25;;;9.00;100.00
73551;BME280;61816;53.582;10.096;2022-12-29T05:22:06;99502.50;;;9.06;100.00
73551;BME280;61816;53.582;10.096;2022-12-29T05:24:32;99501.50;;;9.07;100.00
73551;BME280;61816;53.582;10.096;2022-12-29T05:26:57;99511.34;;;9.00;100.00
73551;BME280;61816;53.582;10.096;2022-12-29T05:29:23;99507.63;;;9.01;100.00
73551;BME280;61816;53.582;10.096;2022-12-29T05:31:48;99491.38;;;9.09;100.00
73551;BME280;61816;53.582;10.096;2022-12-29T05:34:13;99502.16;;;9.09;100.00
73551;BME280;61816;53.582;10.096;2022-12-29T05:36:39;99500.50;;;9.08;100.00
73551;BME280;61816;53.582;10.096;2022-12-29T05:39:05;99489.69;;;9.08;100.00
73551;BME280;61816;53.582;10.096;2022-12-29T05:41:33;99491.56;;;9.22;100.00
73551;BME280;61816;53.582;10.096;2022-12-29T05:43:58;99487.84;;;9.23;100.00
73551;BME280;61816;53.582;10.096;2022-12-29T05:46:24;99492.41;;;9.22;100.00
73551;BME280;61816;53.582;10.096;2022-12-29T05:48:49;99515.81;;;9.30;100.00
73551;BME280;61816;53.582;10.096;2022-12-29T05:51:15;99499.59;;;9.30;100.00
73551;BME280;61816;53.582;10.096;2022-12-29T05:53:40;99510.59;;;9.43;100.00
73551;BME280;61816;53.582;10.096;2022-12-29T05:56:05;99504.84;;;9.46;100.00
73551;BME280;61816;53.582;10.096;2022-12-29T05:58:31;99509.03;;;9.49;100.00
73551;BME280;61816;53.582;10.096;2022-12-29T06:00:56;99498.81;;;9.59;100.00
73551;BME280;61816;53.582;10.096;2022-12-29T06:03:21;99509.59;;;9.74;100.00
73551;BME280;61816;53.582;10.096;2022-12-29T06:05:47;99502.03;;;9.84;100.00
73551;BME280;61816;53.582;10.096;2022-12-29T06:08:12;99504.09;;;9.82;100.00
73551;BME280;61816;53.582;10.096;2022-12-29T06:10:38;99508.00;;;9.94;100.00
73551;BME280;61816;53.582;10.096;2022-12-29T06:13:04;99510.69;;;10.09;100.00
73551;BME280;61816;53.582;10.096;2022-12-29T06:15:34;99532.81;;;10.13;100.00
73551;BME280;61816;53.582;10.096;2022-12-29T06:17:59;99521.69;;;10.22;100.00
73551;BME280;61816;53.582;10.096;2022-12-29T06:20:25;99515.81;;;10.19;100.00
73551;BME280;61816;53.582;10.096;2022-12-29T06:22:50;99521.78;;;10.29;100.00
73551;BME280;61816;53.582;10.096;2022-12-29T06:25:16;99528.31;;;10.20;100.00
73551;BME280;61816;53.582;10.096;2022-12-29T06:27:41;99522.19;;;10.26;100.00
73551;BME280;61816;53.582;10.096;2022-12-29T06:30:08;99523.84;;;10.27;100.00
73551;BME280;61816;53.582;10.096;2022-12-29T06:32:34;99516.69;;;10.04;100.00
73551;BME280;61816;53.582;10.096;2022-12-29T06:34:59;99505.47;;;10.07;100.00
73551;BME280;61816;53.582;10.096;2022-12-29T06:37:25;99526.16;;;10.15;100.00
73551;BME280;61816;53.582;10.096;2022-12-29T06:39:50;99507.91;;;10.02;100.00
73551;BME280;61816;53.582;10.096;2022-12-29T06:42:16;99512.28;;;10.03;100.00
73551;BME280;61816;53.582;10.096;2022-12-29T06:44:41;99520.69;;;10.09;100.00
73551;BME280;61816;53.582;10.096;2022-12-29T06:47:07;99522.94;;;10.05;100.00
73551;BME280;61816;53.582;10.096;2022-12-29T06:49:32;99505.78;;;9.83;100.00
73551;BME280;61816;53.582;10.096;2022-12-29T06:51:57;99504.28;;;9.95;100.00
73551;BME280;61816;53.582;10.096;2022-12-29T06:54:25;99502.81;;;9.93;100.00
73551;BME280;61816;53.582;10.096;2022-12-29T06:56:50;99493.28;;;9.82;100.00
73551;BME280;61816;53.582;10.096;2022-12-29T06:59:15;99492.25;;;9.83;100.00
73551;BME280;61816;53.582;10.096;2022-12-29T07:01:41;99493.47;;;9.95;100.00
73551;BME280;61816;53.582;10.096;2022-12-29T07:04:06;99493.84;;;9.92;100.00
73551;BME280;61816;53.582;10.096;2022-12-29T07:06:31;99503.34;;;9.88;100.00
73551;BME280;61816;53.582;10.096;2022-12-29T07:08:57;99498.34;;;9.85;100.00
73551;BME280;61816;53.582;10.096;2022-12-29T07:11:22;99494.78;;;9.99;100.00
73551;BME280;61816;53.582;10.096;2022-12-29T07:13:48;99493.56;;;10.02;100.00
73551;BME280;61816;53.582;10.096;2022-12-29T07:16:14;99491.03;;;10.00;100.00
73551;BME280;61816;53.582;10.096;2022-12-29T07:18:39;99500.00;;;9.86;100.00
73551;BME280;61816;53.582;10.096;2022-12-29T07:21:05;99489.56;;;9.83;100.00
73551;BME280;61816;53.582;10.096;2022-12-29T07:23:30;99493.47;;;9.95;100.00
73551;BME280;61816;53.582;10.096;2022-12-29T07:26:01;99493.78;;;9.86;100.00
73551;BME280;61816;53.582;10.096;2022-12-29T07:28:26;99503.25;;;9.82;100.00
73551;BME280;61816;53.582;10.096;2022-12-29T07:30:54;99516.97;;;9.80;100.00
73551;BME280;61816;53.582;10.096;2022-12-29T07:33:20;99516.97;;;9.80;100.00
73551;BME280;61816;53.582;10.096;2022-12-29T07:35:45;99511.75;;;9.93;100.00
73551;BME280;61816;53.582;10.096;2022-12-29T07:38:10;99505.97;;;9.67;100.00
73551;BME280;61816;53.582;10.096;2022-12-29T07:40:36;99512.22;;;9.82;100.00
73551;BME280;61816;53.582;10.096;2022-12-29T07:43:01;99529.72;;;9.71;100.00
73551;BME280;61816;53.582;10.096;2022-12-29T07:45:26;99538.94;;;9.77;100.00
73551;BME280;61816;53.582;10.096;2022-12-29T07:47:52;99516.97;;;9.80;100.00
73551;BME280;61816;53.582;10.096;2022-12-29T07:50:17;99500.38;;;9.68;100.00
73551;BME280;61816;53.582;10.096;2022-12-29T07:52:43;99514.63;;;9.62;100.00
73551;BME280;61816;53.582;10.096;2022-12-29T07:55:08;99523.66;;;9.55;100.00
73551;BME280;61816;53.582;10.096;2022-12-29T07:57:34;99523.88;;;9.68;100.00
73551;BME280;61816;53.582;10.096;2022-12-29T07:59:59;99531.69;;;9.63;100.00
73551;BME280;61816;53.582;10.096;2022-12-29T08:02:24;99525.00;;;9.59;100.00
73551;BME280;61816;53.582;10.096;2022-12-29T08:04:51;99517.53;;;9.61;100.00
73551;BME280;61816;53.582;10.096;2022-12-29T08:07:16;99523.66;;;9.55;100.00
73551;BME280;61816;53.582;10.096;2022-12-29T08:09:42;99521.25;;;9.60;100.00
73551;BME280;61816;53.582;10.096;2022-12-29T08:12:09;99539.16;;;9.61;100.00
73551;BME280;61816;53.582;10.096;2022-12-29T08:14:36;99536.63;;;9.59;100.00
73551;BME280;61816;53.582;10.096;2022-12-29T08:17:01;99536.69;;;9.36;100.00
73551;BME280;61816;53.582;10.096;2022-12-29T08:19:26;99541.00;;;9.45;100.00
73551;BME280;61816;53.582;10.096;2022-12-29T08:21:53;99545.63;;;9.51;100.00
73551;BME280;61816;53.582;10.096;2022-12-29T08:24:18;99544.91;;;9.58;100.00
73551;BME280;61816;53.582;10.096;2022-12-29T08:26:44;99561.38;;;9.48;100.00
73551;BME280;61816;53.582;10.096;2022-12-29T08:29:09;99555.34;;;9.61;100.00
73551;BME280;61816;53.582;10.096;2022-12-29T08:31:34;99564.09;;;9.63;100.00
73551;BME280;61816;53.582;10.096;2022-12-29T08:34:00;99562.81;;;9.59;100.00
73551;BME280;61816;53.582;10.096;2022-12-29T08:36:26;99571.19;;;9.64;100.00
73551;BME280;61816;53.582;10.096;2022-12-29T08:38:52;99575.84;;;9.70;100.00
73551;BME280;61816;53.582;10.096;2022-12-29T08:41:17;99581.94;;;9.72;100.00
73551;BME280;61816;53.582;10.096;2022-12-29T08:43:46;99570.94;;;9.73;100.00
73551;BME280;61816;53.582;10.096;2022-12-29T08:46:12;99570.66;;;9.83;100.00
73551;BME280;61816;53.582;10.096;2022-12-29T08:48:37;99574.22;;;9.98;100.00
73551;BME280;61816;53.582;10.096;2022-12-29T08:51:02;99570.56;;;9.76;100.00
73551;BME280;61816;53.582;10.096;2022-12-29T08:53:28;99564.41;;;9.83;100.00
73551;BME280;61816;53.582;10.096;2022-12-29T08:55:58;99573.63;;;9.88;100.00
73551;BME280;61816;53.582;10.096;2022-12-29T08:58:25;99577.38;;;9.87;100.00
73551;BME280;61816;53.582;10.096;2022-12-29T09:00:54;99579.88;;;9.89;100.00
73551;BME280;61816;53.582;10.096;2022-12-29T09:03:20;99597.88;;;9.96;100.00
73551;BME280;61816;53.582;10.096;2022-12-29T09:05:50;99590.78;;;9.95;100.00
73551;BME280;61816;53.582;10.096;2022-12-29T09:08:16;99585.38;;;9.95;100.00
73551;BME280;61816;53.582;10.096;2022-12-29T09:10:42;99589.13;;;9.94;100.00
73551;BME280;61816;53.582;10.096;2022-12-29T09:13:08;99583.34;;;9.97;100.00
73551;BME280;61816;53.582;10.096;2022-12-29T09:15:33;99610.00;;;10.00;100.00
73551;BME280;61816;53.582;10.096;2022-12-29T09:17:58;99584.44;;;10.03;100.00
73551;BME280;61816;53.582;10.096;2022-12-29T09:20:24;99603.38;;;10.03;100.00
73551;BME280;61816;53.582;10.096;2022-12-29T09:22:49;99594.38;;;10.11;100.00
73551;BME280;61816;53.582;10.096;2022-12-29T09:25:15;99593.41;;;10.03;100.00
73551;BME280;61816;53.582;10.096;2022-12-29T09:27:41;99601.16;;;10.06;100.00
73551;BME280;61816;53.582;10.096;2022-12-29T09:30:09;99606.47;;;10.15;100.00
73551;BME280;61816;53.582;10.096;2022-12-29T09:32:35;99603.47;;;10.10;100.00
73551;BME280;61816;53.582;10.096;2022-12-29T09:35:01;99606.84;;;10.12;100.00
73551;BME280;61816;53.582;10.096;2022-12-29T09:37:27;99597.81;;;10.04;100.00
73551;BME280;61816;53.582;10.096;2022-12-29T09:39:52;99605.53;;;10.07;100.00
73551;BME280;61816;53.582;10.096;2022-12-29T09:42:50;99623.44;;;10.09;100.00
73551;BME280;61816;53.582;10.096;2022-12-29T09:45:25;99632.22;;;10.11;100.00
73551;BME280;61816;53.582;10.096;2022-12-29T09:47:53;99626.69;;;9.89;100.00
73551;BME280;61816;53.582;10.096;2022-12-29T09:50:33;99639.66;;;10.09;100.00
73551;BME280;61816;53.582;10.096;2022-12-29T09:53:21;99628.75;;;10.02;100.00
73551;BME280;61816;53.582;10.096;2022-12-29T09:55:53;99631.75;;;10.07;100.00
73551;BME280;61816;53.582;10.096;2022-12-29T09:58:22;99624.56;;;9.99;100.00
73551;BME280;61816;53.582;10.096;2022-12-29T10:00:56;99624.13;;;10.11;100.00
73551;BME280;61816;53.582;10.096;2022-12-29T10:03:27;99632.22;;;10.11;100.00
73551;BME280;61816;53.582;10.096;2022-12-29T10:08:57;99641.34;;;10.10;100.00
73551;BME280;61816;53.582;10.096;2022-12-29T10:11:46;99643.16;;;10.32;100.00
73551;BME280;61816;53.582;10.096;2022-12-29T10:17:27;99649.50;;;10.24;100.00
73551;BME280;61816;53.582;10.096;2022-12-29T10:25:30;99652.72;;;10.20;100.00
73551;BME280;61816;53.582;10.096;2022-12-29T10:27:59;99649.69;;;10.38;100.00
73551;BME280;61816;53.582;10.096;2022-12-29T10:30:26;99643.53;;;10.29;100.00
73551;BME280;61816;53.582;10.096;2022-12-29T10:32:56;99650.53;;;10.38;100.00
73551;BME280;61816;53.582;10.096;2022-12-29T10:37:54;99647.69;;;10.17;100.00
73551;BME280;61816;53.582;10.096;2022-12-29T10:40:36;99631.31;;;10.33;100.00
73551;BME280;61816;53.582;10.096;2022-12-29T10:43:22;99638.22;;;10.50;99.63
73551;BME280;61816;53.582;10.096;2022-12-29T10:45:49;99627.31;;;10.44;99.89
73551;BME280;61816;53.582;10.096;2022-12-29T10:48:21;99639.91;;;10.51;98.87
73551;BME280;61816;53.582;10.096;2022-12-29T10:50:48;99636.91;;;10.46;99.32
73551;BME280;61816;53.582;10.096;2022-12-29T10:53:21;99614.78;;;10.57;98.11
73551;BME280;61816;53.582;10.096;2022-12-29T10:55:48;99632.63;;;10.37;98.75
73551;BME280;61816;53.582;10.096;2022-12-29T10:58:14;99626.06;;;10.46;98.46
73551;BME280;61816;53.582;10.096;2022-12-29T11:00:41;99630.84;;;10.29;98.60
73551;BME280;61816;53.582;10.096;2022-12-29T11:06:16;99629.44;;;10.48;97.62
73551;BME280;61816;53.582;10.096;2022-12-29T11:09:16;99637.28;;;10.43;98.00
73551;BME280;61816;53.582;10.096;2022-12-29T11:11:46;99626.06;;;10.46;98.08
73551;BME280;61816;53.582;10.096;2022-12-29T11:14:21;99632.06;;;10.56;97.21
73551;BME280;61816;53.582;10.096;2022-12-29T11:17:03;99628.16;;;10.44;98.20
73551;BME280;61816;53.582;10.096;2022-12-29T11:19:31;99632.25;;;10.40;97.65
73551;BME280;61816;53.582;10.096;2022-12-29T11:22:29;99612.66;;;10.38;98.56
73551;BME280;61816;53.582;10.096;2022-12-29T11:25:05;99623.94;;;10.56;97.34
73551;BME280;61816;53.582;10.096;2022-12-29T11:27:31;99618.41;;;10.65;95.48
73551;BME280;61816;53.582;10.096;2022-12-29T11:29:58;99621.00;;;10.73;96.90
73551;BME280;61816;53.582;10.096;2022-12-29T11:32:25;99621.00;;;10.73;95.56
73551;BME280;61816;53.582;10.096;2022-12-29T11:34:51;99617.56;;;10.64;95.55
73551;BME280;61816;53.582;10.096;2022-12-29T11:37:28;99626.72;;;10.63;95.35
73551;BME280;61816;53.582;10.096;2022-12-29T11:39:57;99627.00;;;10.53;94.58
73551;BME280;61816;53.582;10.096;2022-12-29T11:42:48;99618.25;;;10.51;94.56
73551;BME280;61816;53.582;10.096;2022-12-29T11:45:20;99624.09;;;10.55;94.84
73551;BME280;61816;53.582;10.096;2022-12-29T11:47:59;99620.94;;;10.51;93.69
73551;BME280;61816;53.582;10.096;2022-12-29T11:50:33;99625.31;;;10.52;94.40
73551;BME280;61816;53.582;10.096;2022-12-29T11:54:01;99623.25;;;10.54;94.55
73551;BME280;61816;53.582;10.096;2022-12-29T11:56:16;99630.19;;;10.42;95.60
73551;BME280;61816;53.582;10.096;2022-12-29T11:58:43;99631.00;;;10.43;95.63
73551;BME280;61816;53.582;10.096;2022-12-29T12:01:22;99604.25;;;10.33;95.88
73551;BME280;61816;53.582;10.096;2022-12-29T12:04:04;99619.00;;;10.45;95.18
73551;BME280;61816;53.582;10.096;2022-12-29T12:06:34;99642.50;;;10.30;96.42
73551;BME280;61816;53.582;10.096;2022-12-29T12:09:09;99646.81;;;10.39;96.54
73551;BME280;61816;53.582;10.096;2022-12-29T12:11:39;99644.75;;;10.41;97.29
73551;BME280;61816;53.582;10.096;2022-12-29T12:14:17;99644.94;;;10.25;96.97
73551;BME280;61816;53.582;10.096;2022-12-29T12:16:54;99644.94;;;10.25;97.58
73551;BME280;61816;53.582;10.096;2022-12-29T12:19:49;99656.81;;;10.16;97.75
73551;BME280;61816;53.582;10.096;2022-12-29T12:22:21;99656.09;;;10.22;97.80
73551;BME280;61816;53.582;10.096;2022-12-29T12:24:56;99645.47;;;10.05;98.72
73551;BME280;61816;53.582;10.096;2022-12-29T12:27:26;99660.34;;;10.01;99.03
73551;BME280;61816;53.582;10.096;2022-12-29T12:30:25;99646.84;;;10.16;98.83
73551;BME280;61816;53.582;10.096;2022-12-29T12:35:36;99639.66;;;10.09;99.48
73551;BME280;61816;53.582;10.096;2022-12-29T12:40:58;99635.94;;;10.10;99.85
73551;BME280;61816;53.582;10.096;2022-12-29T12:43:44;99637.25;;;10.14;100.00
73551;BME280;61816;53.582;10.096;2022-12-29T12:46:19;99632.28;;;10.02;100.00
73551;BME280;61816;53.582;10.096;2022-12-29T12:51:33;99630.91;;;10.06;100.00
73551;BME280;61816;53.582;10.096;2022-12-29T13:05:16;99637.44;;;10.12;100.00
73551;BME280;61816;53.582;10.096;2022-12-29T13:32:26;99677.91;;;10.05;100.00
73551;BME280;61816;53.582;10.096;2022-12-29T13:35:11;99686.06;;;9.97;100.00
73551;BME280;61816;53.582;10.096;2022-12-29T13:37:50;99698.31;;;9.93;100.00
73551;BME280;61816;53.582;10.096;2022-12-29T13:40:19;99723.06;;;9.82;100.00
73551;BME280;61816;53.582;10.096;2022-12-29T13:42:48;99702.56;;;9.65;100.00
73551;BME280;61816;53.582;10.096;2022-12-29T13:45:20;99707.13;;;9.64;100.00
73551;BME280;61816;53.582;10.096;2022-12-29T13:47:55;99704.63;;;9.63;100.00
73551;BME280;61816;53.582;10.096;2022-12-29T13:50:26;99718.50;;;9.60;100.00
73551;BME280;61816;53.582;10.096;2022-12-29T13:53:26;99730.81;;;9.62;100.00
73551;BME280;61816;53.582;10.096;2022-12-29T13:56:05;99723.84;;;9.68;100.00
73551;BME280;61816;53.582;10.096;2022-12-29T13:59:07;99722.41;;;9.80;100.00
73551;BME280;61816;53.582;10.096;2022-12-29T14:01:45;99750.47;;;9.79;100.00
73551;BME280;61816;53.582;10.096;2022-12-29T14:04:22;99743.31;;;9.86;100.00
73551;BME280;61816;53.582;10.096;2022-12-29T14:07:06;99737.53;;;9.89;100.00
73551;BME280;61816;53.582;10.096;2022-12-29T14:09:50;99758.13;;;9.90;100.00
73551;BME280;61816;53.582;10.096;2022-12-29T14:17:37;99852.38;;;7.94;100.00
73551;BME280;61816;53.582;10.096;2022-12-29T14:20:06;99841.38;;;7.63;100.00
73551;BME280;61816;53.582;10.096;2022-12-29T14:22:56;99827.22;;;7.53;100.00
73551;BME280;61816;53.582;10.096;2022-12-29T14:28:30;99833.91;;;7.49;100.00
73551;BME280;61816;53.582;10.096;2022-12-29T14:31:01;99825.19;;;7.55;100.00
73551;BME280;61816;53.582;10.096;2022-12-29T14:33:29;99832.25;;;7.48;100.00